Flight Track Log - Related Links

Times and Time Zones

All times are in EDT time to prevent confusion due to time zone crossing. See the DAL6221 flight status page for this flight to view local times or setup timezone preferences in your user account.

Time Position Orientation Groundspeed Altitude Reporting Facility
EDT Latitude Longitude Course Direction KTS MPH feet Rate Location/Type
Mon 12:51:00 PM 40.7333 -73.8333 33° Northeast 166 191 2,500  Level New TRACON
Mon 12:52:06 PM 40.7833 -73.7667 45° Northeast 253 291 4,900 2,550 Climbing New TRACON
Mon 12:53:00 PM 40.8500 -73.7333 21° North 288 331 7,600 2,503 Climbing New TRACON
Mon 12:55:13 PM 41.0061 -73.6283 27° Northeast 304 350 12,700 2,145 Climbing Boston Center
Mon 12:56:00 PM 41.2396 -73.4904 33° Northeast  Level FlightAware
Mon 12:56:13 PM 41.1028 -73.5531 30° Northeast 340 391 14,500  Level Boston Center
Mon 12:57:13 PM 41.1847 -73.4853 32° Northeast 373 429 16,200 1,750 Climbing Boston Center
Mon 12:58:13 PM 41.2833 -73.4042 32° Northeast 380 437 18,000 1,350 Climbing Boston Center
Mon 12:59:13 PM 41.3589 -73.3417 32° Northeast 391 450 18,900 1,350 Climbing Boston Center
Mon 01:00:13 PM 41.4681 -73.2517 32° Northeast 408 470 20,700 1,750 Climbing Boston Center
Mon 01:01:13 PM 41.5664 -73.1697 32° Northeast 414 476 22,400 1,600 Climbing Boston Center
Mon 01:02:13 PM 41.6711 -73.1156 21° North 403 464 23,900 1,450 Climbing Boston Center
Mon 01:03:13 PM 41.7856 -73.1361 352° North 396 456 25,300 1,200 Climbing Boston Center
Mon 01:04:13 PM 41.9042 -73.1542 354° North 401 461 26,300 850 Climbing Boston Center
Mon 01:05:13 PM 42.0208 -73.1750 352° North 419 482 27,000 350 Climbing Boston Center
Mon 01:06:13 PM 42.1414 -73.1989 352° North 426 490 27,000  Level Boston Center
Mon 01:07:13 PM 42.2747 -73.2200 353° North 432 497 27,000  Level Boston Center
Mon 01:08:13 PM 42.3872 -73.2300 356° North 438 504 27,000  Level Boston Center
Mon 01:09:13 PM 42.5081 -73.2511 353° North 443 510 27,000  Level Boston Center
Mon 01:10:13 PM 42.6431 -73.2869 349° North 443 510 27,000  Level Boston Center
Mon 01:11:13 PM 42.7639 -73.3056 354° North 443 510 27,000  Level Boston Center
Mon 01:12:13 PM 42.8847 -73.3269 353° North 443 510 27,000  Level Boston Center
Mon 01:13:13 PM 43.0075 -73.3431 355° North 448 516 27,000 50 Level Boston Center
Mon 01:14:13 PM 43.1306 -73.3278 North 442 509 27,100 -100 Climbing Boston Center
Mon 01:15:13 PM 43.2536 -73.3125 North 442 509 26,800 -1,550 Descending Boston Center
Mon 01:16:13 PM 43.3831 -73.2972 North 442 509 24,000 -2,750 Descending Boston Center
Mon 01:17:13 PM 43.4914 -73.2814 North 442 509 21,300 -2,750 Descending Boston Center
Mon 01:18:13 PM 43.6125 -73.2658 North 442 509 18,500 -2,650 Descending Boston Center
Mon 01:19:13 PM 43.7397 -73.2506 North 437 503 16,000 -2,500 Descending Boston Center
Mon 01:20:13 PM 43.8503 -73.2375 North 412 474 13,500 -2,250 Descending Boston Center
Mon 01:21:13 PM 43.9503 -73.2217 North 383 441 11,500 -1,500 Descending Boston Center
Mon 01:22:13 PM 44.0317 -73.2225 360° North 340 391 10,500 -1,200 Descending Boston Center
Mon 01:23:13 PM 44.1106 -73.2439 349° North 300 345 9,100 -1,500 Descending Boston Center
Mon 01:24:13 PM 44.1939 -73.2625 351° North 288 331 7,500 -1,409 Descending Boston Center
Mon 01:25:25 PM 44.2853 -73.2986 344° North 288 331 6,000 -1,273 Descending Boston Center
Mon 01:26:25 PM 44.3600 -73.3403 338° Northwest 288 331 4,700 -1,200 Descending Boston Center
Mon 01:27:25 PM 44.4286 -73.3469 356° North 262 302 3,600 -1,100 Descending Boston Center
Mon 01:28:25 PM 44.4853 -73.2925 34° Northeast 226 260 2,500 -950 Descending Boston Center
Mon 01:29:25 PM 44.5106 -73.2406 56° Northeast 180 207 1,700 -850 Descending Boston Center
Mon 01:30:25 PM 44.4964 -73.1939 113° Southeast 129 148 800 -700 Descending Boston Center
Mon 01:31:25 PM 44.4758 -73.1586 129° Southeast 129 148 300 -250 Descending Boston Center
Mon 01:32:25 PM 44.4694 -73.1558 163° South 92 106 300  Level Boston Center
Mon 01:33:25 PM 44.4675 -73.1556 174° South 47 54 300  Level Boston Center

Login

Don't have an account? Register now (free) for customized features, flight alerts, and more!